PWSweather.com
Personal Weather Stations
Station Observations
KVAGLENALL
West Henrico, Glen Allen, VA 23060-6503

West HenricoGlen Allen, VA 23060-6503

Lat: 37.6554, Lon: -77.5693

Elevation: 273

Station Type: Davis Vantage Pro II

Latest ConditionsUpdated 9:15:16 AM EDT Saturday, Mar 25, 2017
Currently Today's Max Today's Min Today's Average
Temperature 60.6°F15.9°C 61.0°F16.1°C 57.6°F14.2°C 59.2°F15.1°C
Dew Point 50.8°F10.4°C 50.8°F10.4°C 48.9°F9.4°C 49.3°F9.6°C
Winds 7.1 mph S11.4 kmh S 11.1 mph SW17.9 kmh SW - 6.0 mph 9.7 kmh
Wind Gusts 10.1 mph16.3 kmh 18.2 mph29.3 kmh - -
Humidity 70% 74% 65% 70%
Pressure 30.24 in1024.0 mb 30.25 in1024.4 mb 30.19 in1022.4 mb -
Hour Temp Dew Point Humidity Winds Wind Gusts Pressure Precip Precip Rate Daily Precip Total
09:15 AM 60.6°F15.9°C 50.8°F10.4°C 70% 7.1 mph S11.4 kmh S 10.1 mph16.3 kmh 30.24 in1024.0 mb 0.00 in0.0 mm 0.00 in0.0 mm 0.00 in0.0 mm
09:00 AM 60.1°F15.6°C 50.7°F10.4°C 71% 1.0 mph SW1.6 kmh SW 6.1 mph9.8 kmh 30.24 in1024.0 mb 0.00 in0.0 mm 0.00 in0.0 mm 0.00 in0.0 mm
08:45 AM 59.6°F15.3°C 50.2°F10.1°C 71% 10.1 mph W16.3 kmh W 16.2 mph26.1 kmh 30.25 in1024.4 mb 0.00 in0.0 mm 0.00 in0.0 mm 0.00 in0.0 mm
08:30 AM 59.1°F15.1°C 50.1°F10.1°C 72% 3.0 mph SSW4.8 kmh SSW 7.1 mph11.4 kmh 30.24 in1024.0 mb 0.00 in0.0 mm 0.00 in0.0 mm 0.00 in0.0 mm
08:15 AM 58.6°F14.8°C 49.6°F9.8°C 72% 5.1 mph SW8.2 kmh SW 17.2 mph27.7 kmh 30.24 in1024.0 mb 0.00 in0.0 mm 0.00 in0.0 mm 0.00 in0.0 mm
08:00 AM 58.1°F14.5°C 49.5°F9.7°C 73% 9.1 mph SSW14.6 kmh SSW 13.2 mph21.2 kmh 30.23 in1023.7 mb 0.00 in0.0 mm 0.00 in0.0 mm 0.00 in0.0 mm
07:45 AM 57.8°F14.3°C 49.6°F9.8°C 74% 7.1 mph SW11.4 kmh SW 7.1 mph11.4 kmh 30.23 in1023.7 mb 0.00 in0.0 mm 0.00 in0.0 mm 0.00 in0.0 mm
07:30 AM 57.7°F14.3°C 49.5°F9.7°C 74% 7.1 mph S11.4 kmh S 7.1 mph11.4 kmh 30.23 in1023.7 mb 0.00 in0.0 mm 0.00 in0.0 mm 0.00 in0.0 mm
07:15 AM 57.6°F14.2°C 49.4°F9.7°C 74% 4.1 mph SSW6.6 kmh SSW 8.1 mph13.0 kmh 30.22 in1023.4 mb 0.00 in0.0 mm 0.00 in0.0 mm 0.00 in0.0 mm
07:00 AM 57.7°F14.3°C 49.1°F9.5°C 73% 9.1 mph S14.6 kmh S 9.1 mph14.6 kmh 30.22 in1023.4 mb 0.00 in0.0 mm 0.00 in0.0 mm 0.00 in0.0 mm
06:45 AM 57.7°F14.3°C 49.1°F9.5°C 73% 4.1 mph S6.6 kmh S 11.2 mph18.0 kmh 30.21 in1023.0 mb 0.00 in0.0 mm 0.00 in0.0 mm 0.00 in0.0 mm
06:30 AM 57.9°F14.4°C 48.9°F9.4°C 72% 7.1 mph S11.4 kmh S 12.2 mph19.6 kmh 30.21 in1023.0 mb 0.00 in0.0 mm 0.00 in0.0 mm 0.00 in0.0 mm
06:15 AM 58.0°F14.4°C 49.0°F9.4°C 72% 6.1 mph SSW9.8 kmh SSW 9.1 mph14.6 kmh 30.21 in1023.0 mb 0.00 in0.0 mm 0.00 in0.0 mm 0.00 in0.0 mm
06:00 AM 58.2°F14.6°C 49.2°F9.6°C 72% 4.1 mph SW6.6 kmh SW 13.2 mph21.2 kmh 30.20 in1022.7 mb 0.00 in0.0 mm 0.00 in0.0 mm 0.00 in0.0 mm
05:45 AM 58.5°F14.7°C 49.1°F9.5°C 71% 5.1 mph SSW8.2 kmh SSW 13.2 mph21.2 kmh 30.20 in1022.7 mb 0.00 in0.0 mm 0.00 in0.0 mm 0.00 in0.0 mm
05:30 AM 58.9°F14.9°C 49.1°F9.5°C 70% 4.1 mph S6.6 kmh S 8.1 mph13.0 kmh 30.20 in1022.7 mb 0.00 in0.0 mm 0.00 in0.0 mm 0.00 in0.0 mm
05:15 AM 59.1°F15.1°C 49.0°F9.4°C 69% 3.0 mph SW4.8 kmh SW 13.2 mph21.2 kmh 30.20 in1022.7 mb 0.00 in0.0 mm 0.00 in0.0 mm 0.00 in0.0 mm
05:00 AM 59.2°F15.1°C 49.0°F9.4°C 69% 6.1 mph S9.8 kmh S 13.2 mph21.2 kmh 30.19 in1022.4 mb 0.00 in0.0 mm 0.00 in0.0 mm 0.00 in0.0 mm
04:45 AM 59.4°F15.2°C 48.9°F9.4°C 68% 9.1 mph S14.6 kmh S 14.2 mph22.9 kmh 30.19 in1022.4 mb 0.00 in0.0 mm 0.00 in0.0 mm 0.00 in0.0 mm
04:30 AM 59.6°F15.3°C 49.0°F9.4°C 68% 4.1 mph SSW6.6 kmh SSW 14.2 mph22.9 kmh 30.19 in1022.4 mb 0.00 in0.0 mm 0.00 in0.0 mm 0.00 in0.0 mm
04:15 AM 59.6°F15.3°C 49.0°F9.4°C 68% 11.1 mph SSW17.9 kmh SSW 14.2 mph22.9 kmh 30.19 in1022.4 mb 0.00 in0.0 mm 0.00 in0.0 mm 0.00 in0.0 mm
04:00 AM 59.6°F15.3°C 49.0°F9.4°C 68% 7.1 mph SSW11.4 kmh SSW 12.2 mph19.6 kmh 30.19 in1022.4 mb 0.00 in0.0 mm 0.00 in0.0 mm 0.00 in0.0 mm
03:45 AM 59.4°F15.2°C 48.9°F9.4°C 68% 7.1 mph SSW11.4 kmh SSW 18.2 mph29.3 kmh 30.19 in1022.4 mb 0.00 in0.0 mm 0.00 in0.0 mm 0.00 in0.0 mm
03:30 AM 59.2°F15.1°C 49.0°F9.4°C 69% 10.1 mph SW16.3 kmh SW 10.1 mph16.3 kmh 30.20 in1022.7 mb 0.00 in0.0 mm 0.00 in0.0 mm 0.00 in0.0 mm
03:15 AM 59.1°F15.1°C 49.0°F9.4°C 69% 6.1 mph S9.8 kmh S 11.2 mph18.0 kmh 30.20 in1022.7 mb 0.00 in0.0 mm 0.00 in0.0 mm 0.00 in0.0 mm
03:00 AM 59.2°F15.1°C 49.0°F9.4°C 69% 6.1 mph SSW9.8 kmh SSW 10.1 mph16.3 kmh 30.21 in1023.0 mb 0.00 in0.0 mm 0.00 in0.0 mm 0.00 in0.0 mm
02:45 AM 59.3°F15.2°C 49.1°F9.5°C 69% 5.1 mph S8.2 kmh S 7.1 mph11.4 kmh 30.22 in1023.4 mb 0.00 in0.0 mm 0.00 in0.0 mm 0.00 in0.0 mm
02:30 AM 59.3°F15.2°C 49.1°F9.5°C 69% 4.1 mph S6.6 kmh S 7.1 mph11.4 kmh 30.22 in1023.4 mb 0.00 in0.0 mm 0.00 in0.0 mm 0.00 in0.0 mm
02:15 AM 59.6°F15.3°C 49.0°F9.4°C 68% 5.1 mph S8.2 kmh S 9.1 mph14.6 kmh 30.22 in1023.4 mb 0.00 in0.0 mm 0.00 in0.0 mm 0.00 in0.0 mm
02:00 AM 59.8°F15.4°C 49.2°F9.6°C 68% 5.1 mph SSW8.2 kmh SSW 12.2 mph19.6 kmh 30.23 in1023.7 mb 0.00 in0.0 mm 0.00 in0.0 mm 0.00 in0.0 mm
01:45 AM 59.8°F15.4°C 49.2°F9.6°C 68% 8.1 mph SSW13.0 kmh SSW 10.1 mph16.3 kmh 30.23 in1023.7 mb 0.00 in0.0 mm 0.00 in0.0 mm 0.00 in0.0 mm
01:30 AM 59.8°F15.4°C 49.2°F9.6°C 68% 4.1 mph SSW6.6 kmh SSW 5.1 mph8.2 kmh 30.23 in1023.7 mb 0.00 in0.0 mm 0.00 in0.0 mm 0.00 in0.0 mm
01:15 AM 60.1°F15.6°C 49.1°F9.5°C 67% 3.0 mph SSW4.8 kmh SSW 10.1 mph16.3 kmh 30.24 in1024.0 mb 0.00 in0.0 mm 0.00 in0.0 mm 0.00 in0.0 mm
01:00 AM 60.3°F15.7°C 49.3°F9.6°C 67% 6.1 mph S9.8 kmh S 8.1 mph13.0 kmh 30.24 in1024.0 mb 0.00 in0.0 mm 0.00 in0.0 mm 0.00 in0.0 mm
12:45 AM 60.5°F15.8°C 49.1°F9.5°C 66% 3.0 mph WSW4.8 kmh WSW 11.2 mph18.0 kmh 30.24 in1024.0 mb 0.00 in0.0 mm 0.00 in0.0 mm 0.00 in0.0 mm
12:30 AM 60.9°F16.1°C 49.1°F9.5°C 65% 5.1 mph SSW8.2 kmh SSW 13.2 mph21.2 kmh 30.23 in1023.7 mb 0.00 in0.0 mm 0.00 in0.0 mm 0.00 in0.0 mm
12:15 AM 61.0°F16.1°C 49.2°F9.6°C 65% 6.1 mph SSW9.8 kmh SSW 13.2 mph21.2 kmh 30.24 in1024.0 mb 0.00 in0.0 mm 0.00 in0.0 mm 0.00 in0.0 mm
12:00 AM 60.8°F16.0°C 49.0°F9.4°C 65% 11.1 mph SW17.9 kmh SW 11.2 mph18.0 kmh 30.24 in1024.0 mb 0.00 in0.0 mm 0.00 in0.0 mm 0.00 in0.0 mm